sensor_id;sensor_type;location;lat;lon;timestamp;pressure;altitude;pressure_sealevel;temperature;humidity
41686;BME280;27370;42.764;23.432;2022-10-16T00:02:19;96220.94;;;6.96;100.00
41686;BME280;27370;42.764;23.432;2022-10-16T00:04:44;96221.22;;;6.84;100.00
41686;BME280;27370;42.764;23.432;2022-10-16T00:07:10;96223.88;;;6.54;100.00
41686;BME280;27370;42.764;23.432;2022-10-16T00:09:35;96225.25;;;6.41;100.00
41686;BME280;27370;42.764;23.432;2022-10-16T00:12:01;96231.31;;;6.34;100.00
41686;BME280;27370;42.764;23.432;2022-10-16T00:14:29;96233.38;;;6.74;100.00
41686;BME280;27370;42.764;23.432;2022-10-16T00:16:54;96231.47;;;6.45;100.00
41686;BME280;27370;42.764;23.432;2022-10-16T00:19:20;96239.13;;;6.17;100.00
41686;BME280;27370;42.764;23.432;2022-10-16T00:21:45;96240.38;;;6.23;100.00
41686;BME280;27370;42.764;23.432;2022-10-16T00:24:11;96242.28;;;6.22;100.00
41686;BME280;27370;42.764;23.432;2022-10-16T00:26:37;96238.34;;;6.16;100.00
41686;BME280;27370;42.764;23.432;2022-10-16T00:29:03;96237.78;;;6.30;100.00
41686;BME280;27370;42.764;23.432;2022-10-16T00:31:28;96243.25;;;6.10;100.00
41686;BME280;27370;42.764;23.432;2022-10-16T00:33:55;96247.75;;;6.03;100.00
41686;BME280;27370;42.764;23.432;2022-10-16T00:36:22;96252.88;;;5.89;100.00
41686;BME280;27370;42.764;23.432;2022-10-16T00:38:56;96254.34;;;6.09;100.00
41686;BME280;27370;42.764;23.432;2022-10-16T00:41:26;96258.97;;;6.08;100.00
41686;BME280;27370;42.764;23.432;2022-10-16T00:43:55;96251.78;;;5.90;100.00
41686;BME280;27370;42.764;23.432;2022-10-16T00:46:39;96248.97;;;5.86;100.00
41686;BME280;27370;42.764;23.432;2022-10-16T00:49:11;96247.44;;;5.85;100.00
41686;BME280;27370;42.764;23.432;2022-10-16T00:51:49;96243.72;;;5.90;100.00
41686;BME280;27370;42.764;23.432;2022-10-16T00:54:26;96247.22;;;5.71;100.00
41686;BME280;27370;42.764;23.432;2022-10-16T00:56:53;96252.09;;;5.65;100.00
41686;BME280;27370;42.764;23.432;2022-10-16T00:59:26;96249.75;;;5.64;100.00
41686;BME280;27370;42.764;23.432;2022-10-16T01:01:53;96256.03;;;5.48;100.00
41686;BME280;27370;42.764;23.432;2022-10-16T01:04:20;96254.53;;;5.51;100.00
41686;BME280;27370;42.764;23.432;2022-10-16T01:06:51;96263.50;;;5.59;100.00
41686;BME280;27370;42.764;23.432;2022-10-16T01:12:01;96264.22;;;5.56;100.00
41686;BME280;27370;42.764;23.432;2022-10-16T01:14:54;96259.91;;;5.51;100.00
41686;BME280;27370;42.764;23.432;2022-10-16T01:17:28;96256.09;;;5.52;100.00
41686;BME280;27370;42.764;23.432;2022-10-16T01:22:56;96252.44;;;5.64;100.00
41686;BME280;27370;42.764;23.432;2022-10-16T01:25:42;96247.78;;;5.61;100.00
41686;BME280;27370;42.764;23.432;2022-10-16T01:28:15;96250.53;;;5.41;100.00
41686;BME280;27370;42.764;23.432;2022-10-16T01:30:44;96246.00;;;5.45;100.00
41686;BME280;27370;42.764;23.432;2022-10-16T01:33:18;96256.88;;;5.52;100.00
41686;BME280;27370;42.764;23.432;2022-10-16T01:35:48;96247.34;;;5.36;100.00
41686;BME280;27370;42.764;23.432;2022-10-16T01:38:31;96257.31;;;5.35;100.00
41686;BME280;27370;42.764;23.432;2022-10-16T01:41:02;96254.94;;;5.30;100.00
41686;BME280;27370;42.764;23.432;2022-10-16T01:44:15;96259.94;;;5.32;100.00
41686;BME280;27370;42.764;23.432;2022-10-16T01:46:43;96256.53;;;5.35;100.00
41686;BME280;27370;42.764;23.432;2022-10-16T01:49:11;96260.81;;;5.16;100.00
41686;BME280;27370;42.764;23.432;2022-10-16T01:51:37;96261.78;;;5.28;100.00
41686;BME280;27370;42.764;23.432;2022-10-16T01:54:04;96268.22;;;5.23;100.00
41686;BME280;27370;42.764;23.432;2022-10-16T01:56:32;96270.63;;;5.09;100.00
41686;BME280;27370;42.764;23.432;2022-10-16T01:59:02;96275.22;;;4.89;100.00
41686;BME280;27370;42.764;23.432;2022-10-16T02:01:33;96273.75;;;4.91;100.00
41686;BME280;27370;42.764;23.432;2022-10-16T02:04:10;96279.38;;;4.86;100.00
41686;BME280;27370;42.764;23.432;2022-10-16T02:06:38;96274.94;;;4.94;100.00
41686;BME280;27370;42.764;23.432;2022-10-16T02:09:04;96275.88;;;5.02;100.00
41686;BME280;27370;42.764;23.432;2022-10-16T02:11:29;96279.69;;;5.01;100.00
41686;BME280;27370;42.764;23.432;2022-10-16T02:14:01;96278.41;;;4.95;100.00
41686;BME280;27370;42.764;23.432;2022-10-16T02:16:43;96285.31;;;4.76;100.00
41686;BME280;27370;42.764;23.432;2022-10-16T02:19:11;96283.66;;;4.72;100.00
41686;BME280;27370;42.764;23.432;2022-10-16T02:24:28;96299.00;;;4.71;100.00
41686;BME280;27370;42.764;23.432;2022-10-16T02:27:13;96289.38;;;4.70;100.00
41686;BME280;27370;42.764;23.432;2022-10-16T02:29:45;96295.88;;;4.69;100.00
41686;BME280;27370;42.764;23.432;2022-10-16T02:32:19;96293.34;;;4.57;100.00
41686;BME280;27370;42.764;23.432;2022-10-16T02:34:47;96298.53;;;4.50;100.00
41686;BME280;27370;42.764;23.432;2022-10-16T02:37:14;96294.28;;;4.49;100.00
41686;BME280;27370;42.764;23.432;2022-10-16T02:39:41;96297.25;;;4.44;100.00
41686;BME280;27370;42.764;23.432;2022-10-16T02:42:12;96288.84;;;4.45;100.00
41686;BME280;27370;42.764;23.432;2022-10-16T02:44:38;96297.03;;;4.52;100.00
41686;BME280;27370;42.764;23.432;2022-10-16T02:47:03;96289.94;;;4.60;100.00
41686;BME280;27370;42.764;23.432;2022-10-16T02:49:29;96302.81;;;4.70;100.00
41686;BME280;27370;42.764;23.432;2022-10-16T02:51:54;96301.66;;;4.71;100.00
41686;BME280;27370;42.764;23.432;2022-10-16T02:54:20;96298.13;;;4.67;100.00
41686;BME280;27370;42.764;23.432;2022-10-16T02:56:45;96302.09;;;4.73;100.00
41686;BME280;27370;42.764;23.432;2022-10-16T02:59:11;96301.25;;;4.69;100.00
41686;BME280;27370;42.764;23.432;2022-10-16T03:01:36;96299.88;;;4.75;100.00
41686;BME280;27370;42.764;23.432;2022-10-16T03:04:02;96302.81;;;4.70;100.00
41686;BME280;27370;42.764;23.432;2022-10-16T03:06:27;96306.97;;;4.68;100.00
41686;BME280;27370;42.764;23.432;2022-10-16T03:08:53;96310.50;;;4.72;100.00
41686;BME280;27370;42.764;23.432;2022-10-16T03:11:18;96307.59;;;4.61;100.00
41686;BME280;27370;42.764;23.432;2022-10-16T03:13:44;96309.81;;;4.40;100.00
41686;BME280;27370;42.764;23.432;2022-10-16T03:16:10;96310.22;;;4.42;100.00
41686;BME280;27370;42.764;23.432;2022-10-16T03:18:35;96312.41;;;4.36;100.00
41686;BME280;27370;42.764;23.432;2022-10-16T03:21:01;96317.84;;;4.40;100.00
41686;BME280;27370;42.764;23.432;2022-10-16T03:23:27;96319.81;;;4.43;100.00
41686;BME280;27370;42.764;23.432;2022-10-16T03:25:52;96323.28;;;4.43;100.00
41686;BME280;27370;42.764;23.432;2022-10-16T03:28:19;96326.25;;;4.38;100.00
41686;BME280;27370;42.764;23.432;2022-10-16T03:30:44;96327.16;;;4.46;100.00
41686;BME280;27370;42.764;23.432;2022-10-16T03:33:09;96328.28;;;4.45;100.00
41686;BME280;27370;42.764;23.432;2022-10-16T03:35:35;96326.38;;;4.61;100.00
41686;BME280;27370;42.764;23.432;2022-10-16T03:38:00;96323.63;;;4.42;100.00
41686;BME280;27370;42.764;23.432;2022-10-16T03:40:26;96317.25;;;4.30;100.00
41686;BME280;27370;42.764;23.432;2022-10-16T03:42:52;96318.63;;;4.24;100.00
41686;BME280;27370;42.764;23.432;2022-10-16T03:45:19;96317.00;;;4.20;100.00
41686;BME280;27370;42.764;23.432;2022-10-16T03:47:45;96314.13;;;4.44;100.00
41686;BME280;27370;42.764;23.432;2022-10-16T03:50:10;96320.44;;;4.36;100.00
41686;BME280;27370;42.764;23.432;2022-10-16T03:52:36;96323.41;;;4.31;100.00
41686;BME280;27370;42.764;23.432;2022-10-16T03:55:01;96316.31;;;4.23;100.00
41686;BME280;27370;42.764;23.432;2022-10-16T03:57:27;96317.69;;;4.17;100.00
41686;BME280;27370;42.764;23.432;2022-10-16T03:59:52;96322.47;;;4.08;100.00
41686;BME280;27370;42.764;23.432;2022-10-16T04:02:17;96328.84;;;4.03;100.00
41686;BME280;27370;42.764;23.432;2022-10-16T04:04:43;96322.38;;;3.88;100.00
41686;BME280;27370;42.764;23.432;2022-10-16T04:07:08;96323.91;;;3.89;100.00
41686;BME280;27370;42.764;23.432;2022-10-16T04:09:34;96326.06;;;3.99;100.00
41686;BME280;27370;42.764;23.432;2022-10-16T04:11:59;96320.22;;;3.94;100.00
41686;BME280;27370;42.764;23.432;2022-10-16T04:14:25;96329.81;;;4.11;100.00
41686;BME280;27370;42.764;23.432;2022-10-16T04:16:50;96316.47;;;3.67;100.00
41686;BME280;27370;42.764;23.432;2022-10-16T04:19:16;96323.63;;;3.63;100.00
41686;BME280;27370;42.764;23.432;2022-10-16T04:21:41;96325.59;;;3.50;100.00
41686;BME280;27370;42.764;23.432;2022-10-16T04:24:07;96331.56;;;3.59;100.00
41686;BME280;27370;42.764;23.432;2022-10-16T04:26:32;96333.13;;;3.60;100.00
41686;BME280;27370;42.764;23.432;2022-10-16T04:28:58;96328.66;;;3.64;100.00
41686;BME280;27370;42.764;23.432;2022-10-16T04:31:23;96334.88;;;3.68;100.00
41686;BME280;27370;42.764;23.432;2022-10-16T04:33:49;96340.03;;;3.61;100.00
41686;BME280;27370;42.764;23.432;2022-10-16T04:36:14;96346.41;;;3.41;100.00
41686;BME280;27370;42.764;23.432;2022-10-16T04:38:40;96343.25;;;3.39;100.00
41686;BME280;27370;42.764;23.432;2022-10-16T04:41:06;96344.84;;;3.40;100.00
41686;BME280;27370;42.764;23.432;2022-10-16T04:43:33;96346.97;;;3.34;100.00
41686;BME280;27370;42.764;23.432;2022-10-16T04:45:58;96344.84;;;3.40;100.00
41686;BME280;27370;42.764;23.432;2022-10-16T04:48:24;96347.16;;;3.42;100.00
41686;BME280;27370;42.764;23.432;2022-10-16T04:50:50;96348.22;;;3.53;100.00
41686;BME280;27370;42.764;23.432;2022-10-16T04:53:15;96358.72;;;3.74;100.00
41686;BME280;27370;42.764;23.432;2022-10-16T04:55:41;96359.03;;;3.56;100.00
41686;BME280;27370;42.764;23.432;2022-10-16T04:58:08;96361.47;;;3.33;100.00
41686;BME280;27370;42.764;23.432;2022-10-16T05:00:34;96346.97;;;3.34;100.00
41686;BME280;27370;42.764;23.432;2022-10-16T05:02:59;96357.75;;;3.38;100.00
41686;BME280;27370;42.764;23.432;2022-10-16T05:05:26;96361.78;;;3.44;100.00
41686;BME280;27370;42.764;23.432;2022-10-16T05:07:52;96358.16;;;3.52;100.00
41686;BME280;27370;42.764;23.432;2022-10-16T05:10:18;96360.09;;;3.67;100.00
41686;BME280;27370;42.764;23.432;2022-10-16T05:12:43;96367.88;;;3.73;100.00
41686;BME280;27370;42.764;23.432;2022-10-16T05:15:09;96364.94;;;3.78;100.00
41686;BME280;27370;42.764;23.432;2022-10-16T05:17:35;96375.50;;;3.86;100.00
41686;BME280;27370;42.764;23.432;2022-10-16T05:20:00;96377.25;;;3.94;100.00
41686;BME280;27370;42.764;23.432;2022-10-16T05:22:26;96371.31;;;4.17;100.00
41686;BME280;27370;42.764;23.432;2022-10-16T05:24:51;96381.91;;;4.60;100.00
41686;BME280;27370;42.764;23.432;2022-10-16T05:27:16;96382.94;;;5.07;100.00
41686;BME280;27370;42.764;23.432;2022-10-16T05:29:48;96374.22;;;5.29;100.00
41686;BME280;27370;42.764;23.432;2022-10-16T05:32:15;96392.28;;;5.32;100.00
41686;BME280;27370;42.764;23.432;2022-10-16T05:34:41;96388.13;;;5.35;100.00
41686;BME280;27370;42.764;23.432;2022-10-16T05:37:06;96382.91;;;5.22;100.00
41686;BME280;27370;42.764;23.432;2022-10-16T05:39:32;96383.41;;;5.28;100.00
41686;BME280;27370;42.764;23.432;2022-10-16T05:41:57;96383.13;;;5.33;100.00
41686;BME280;27370;42.764;23.432;2022-10-16T05:44:23;96384.03;;;5.41;100.00
41686;BME280;27370;42.764;23.432;2022-10-16T05:46:49;96387.47;;;5.41;100.00
41686;BME280;27370;42.764;23.432;2022-10-16T05:49:14;96387.59;;;5.45;100.00
41686;BME280;27370;42.764;23.432;2022-10-16T05:51:39;96400.22;;;5.44;100.00
41686;BME280;27370;42.764;23.432;2022-10-16T05:54:06;96398.16;;;5.57;100.00
41686;BME280;27370;42.764;23.432;2022-10-16T05:56:31;96393.50;;;5.54;100.00
41686;BME280;27370;42.764;23.432;2022-10-16T05:58:57;96396.69;;;5.60;100.00
41686;BME280;27370;42.764;23.432;2022-10-16T06:01:22;96414.06;;;5.85;100.00
41686;BME280;27370;42.764;23.432;2022-10-16T06:03:52;96416.38;;;5.87;100.00
41686;BME280;27370;42.764;23.432;2022-10-16T06:06:20;96418.59;;;6.00;100.00
41686;BME280;27370;42.764;23.432;2022-10-16T06:08:47;96426.44;;;6.09;100.00
41686;BME280;27370;42.764;23.432;2022-10-16T06:11:15;96417.50;;;6.24;100.00
41686;BME280;27370;42.764;23.432;2022-10-16T06:13:41;96421.63;;;6.41;100.00
41686;BME280;27370;42.764;23.432;2022-10-16T06:16:09;96424.44;;;6.48;100.00
41686;BME280;27370;42.764;23.432;2022-10-16T06:18:35;96429.03;;;6.48;100.00
41686;BME280;27370;42.764;23.432;2022-10-16T06:21:07;96430.63;;;6.75;100.00
41686;BME280;27370;42.764;23.432;2022-10-16T06:23:33;96436.91;;;6.83;100.00
41686;BME280;27370;42.764;23.432;2022-10-16T06:26:06;96441.16;;;6.84;100.00
41686;BME280;27370;42.764;23.432;2022-10-16T06:28:32;96443.53;;;6.89;100.00
41686;BME280;27370;42.764;23.432;2022-10-16T06:31:01;96438.94;;;6.89;100.00
41686;BME280;27370;42.764;23.432;2022-10-16T06:33:27;96443.53;;;6.89;100.00
41686;BME280;27370;42.764;23.432;2022-10-16T06:35:53;96445.31;;;7.30;100.00
41686;BME280;27370;42.764;23.432;2022-10-16T06:38:18;96447.47;;;7.48;100.00
41686;BME280;27370;42.764;23.432;2022-10-16T06:40:44;96459.38;;;7.47;100.00
41686;BME280;27370;42.764;23.432;2022-10-16T06:43:09;96452.09;;;7.47;100.00
41686;BME280;27370;42.764;23.432;2022-10-16T06:45:35;96455.22;;;7.83;100.00
41686;BME280;27370;42.764;23.432;2022-10-16T06:48:00;96451.75;;;7.82;100.00
41686;BME280;27370;42.764;23.432;2022-10-16T06:50:26;96452.69;;;7.97;100.00
41686;BME280;27370;42.764;23.432;2022-10-16T06:52:51;96447.44;;;8.11;100.00
41686;BME280;27370;42.764;23.432;2022-10-16T06:55:17;96446.28;;;8.12;100.00
41686;BME280;27370;42.764;23.432;2022-10-16T06:57:43;96451.00;;;8.19;100.00
41686;BME280;27370;42.764;23.432;2022-10-16T07:00:09;96460.50;;;8.06;100.00
41686;BME280;27370;42.764;23.432;2022-10-16T07:02:34;96462.84;;;8.44;100.00
41686;BME280;27370;42.764;23.432;2022-10-16T07:05:00;96461.06;;;8.22;100.00
41686;BME280;27370;42.764;23.432;2022-10-16T07:07:25;96464.38;;;8.42;100.00
41686;BME280;27370;42.764;23.432;2022-10-16T07:09:52;96462.34;;;8.76;100.00
41686;BME280;27370;42.764;23.432;2022-10-16T07:12:20;96465.16;;;8.86;100.00
41686;BME280;27370;42.764;23.432;2022-10-16T07:14:46;96466.41;;;9.00;100.00
41686;BME280;27370;42.764;23.432;2022-10-16T07:17:11;96470.22;;;8.92;100.00
41686;BME280;27370;42.764;23.432;2022-10-16T07:19:37;96469.66;;;9.23;100.00
41686;BME280;27370;42.764;23.432;2022-10-16T07:22:02;96467.84;;;9.41;100.00
41686;BME280;27370;42.764;23.432;2022-10-16T07:24:28;96472.59;;;9.55;100.00
41686;BME280;27370;42.764;23.432;2022-10-16T07:26:53;96470.25;;;9.54;100.00
41686;BME280;27370;42.764;23.432;2022-10-16T07:29:20;96474.53;;;9.58;100.00
41686;BME280;27370;42.764;23.432;2022-10-16T07:31:47;96472.75;;;9.94;100.00
41686;BME280;27370;42.764;23.432;2022-10-16T07:34:15;96476.34;;;10.20;100.00
41686;BME280;27370;42.764;23.432;2022-10-16T07:36:41;96473.69;;;10.30;100.00
41686;BME280;27370;42.764;23.432;2022-10-16T07:39:06;96471.81;;;10.52;100.00
41686;BME280;27370;42.764;23.432;2022-10-16T07:41:32;96478.81;;;10.78;100.00
41686;BME280;27370;42.764;23.432;2022-10-16T07:44:01;96483.06;;;11.08;100.00
41686;BME280;27370;42.764;23.432;2022-10-16T07:46:27;96482.31;;;11.18;100.00
41686;BME280;27370;42.764;23.432;2022-10-16T07:48:53;96473.78;;;11.37;100.00
41686;BME280;27370;42.764;23.432;2022-10-16T07:51:21;96476.81;;;11.50;100.00
41686;BME280;27370;42.764;23.432;2022-10-16T07:53:47;96467.56;;;11.40;100.00
41686;BME280;27370;42.764;23.432;2022-10-16T07:56:14;96470.25;;;11.44;100.00
41686;BME280;27370;42.764;23.432;2022-10-16T07:58:40;96477.59;;;11.57;100.00
41686;BME280;27370;42.764;23.432;2022-10-16T08:01:08;96479.13;;;11.80;100.00
41686;BME280;27370;42.764;23.432;2022-10-16T08:03:34;96472.06;;;12.04;100.00
41686;BME280;27370;42.764;23.432;2022-10-16T08:06:00;96473.44;;;12.40;100.00
41686;BME280;27370;42.764;23.432;2022-10-16T08:08:27;96473.47;;;12.33;100.00
41686;BME280;27370;42.764;23.432;2022-10-16T08:10:53;96472.31;;;12.34;100.00
41686;BME280;27370;42.764;23.432;2022-10-16T08:13:19;96480.81;;;12.40;100.00
41686;BME280;27370;42.764;23.432;2022-10-16T08:15:45;96472.50;;;12.68;100.00
41686;BME280;27370;42.764;23.432;2022-10-16T08:18:12;96467.00;;;12.75;100.00
41686;BME280;27370;42.764;23.432;2022-10-16T08:20:38;96471.91;;;12.95;100.00
41686;BME280;27370;42.764;23.432;2022-10-16T08:23:04;96476.81;;;13.17;95.30
41686;BME280;27370;42.764;23.432;2022-10-16T08:25:30;96473.28;;;13.17;98.30
41686;BME280;27370;42.764;23.432;2022-10-16T08:27:56;96472.88;;;13.22;94.44
41686;BME280;27370;42.764;23.432;2022-10-16T08:30:23;96465.56;;;13.57;92.16
41686;BME280;27370;42.764;23.432;2022-10-16T08:32:48;96461.28;;;13.56;98.43
41686;BME280;27370;42.764;23.432;2022-10-16T08:35:14;96467.91;;;13.92;84.77
41686;BME280;27370;42.764;23.432;2022-10-16T08:37:40;96453.94;;;13.90;90.54
41686;BME280;27370;42.764;23.432;2022-10-16T08:40:13;96465.09;;;13.99;90.94
41686;BME280;27370;42.764;23.432;2022-10-16T08:48:29;96463.41;;;14.39;83.14
41686;BME280;27370;42.764;23.432;2022-10-16T08:50:56;96463.25;;;14.54;88.19
41686;BME280;27370;42.764;23.432;2022-10-16T08:53:37;96469.78;;;14.60;84.22
41686;BME280;27370;42.764;23.432;2022-10-16T08:56:07;96476.78;;;14.88;73.66
41686;BME280;27370;42.764;23.432;2022-10-16T08:58:32;96476.53;;;14.79;75.04
41686;BME280;27370;42.764;23.432;2022-10-16T09:01:00;96477.41;;;14.72;80.48
41686;BME280;27370;42.764;23.432;2022-10-16T09:06:37;96471.78;;;14.83;75.16
41686;BME280;27370;42.764;23.432;2022-10-16T09:12:14;96467.50;;;15.09;72.62
41686;BME280;27370;42.764;23.432;2022-10-16T09:17:28;96459.00;;;15.03;74.20
41686;BME280;27370;42.764;23.432;2022-10-16T09:23:12;96464.41;;;15.30;71.78
41686;BME280;27370;42.764;23.432;2022-10-16T09:25:39;96463.88;;;15.39;74.01
41686;BME280;27370;42.764;23.432;2022-10-16T09:28:08;96459.47;;;15.68;79.57
41686;BME280;27370;42.764;23.432;2022-10-16T09:30:34;96463.44;;;15.87;76.64
41686;BME280;27370;42.764;23.432;2022-10-16T09:33:00;96461.75;;;15.93;69.21
41686;BME280;27370;42.764;23.432;2022-10-16T09:35:47;96465.75;;;15.88;68.47
41686;BME280;27370;42.764;23.432;2022-10-16T09:38:32;96453.53;;;15.93;71.07
41686;BME280;27370;42.764;23.432;2022-10-16T09:41:21;96452.81;;;16.29;75.89
41686;BME280;27370;42.764;23.432;2022-10-16T09:44:00;96458.91;;;16.36;68.45
41686;BME280;27370;42.764;23.432;2022-10-16T09:46:29;96458.16;;;16.16;67.66
41686;BME280;27370;42.764;23.432;2022-10-16T09:48:59;96451.91;;;16.35;71.39
41686;BME280;27370;42.764;23.432;2022-10-16T09:51:30;96441.22;;;16.41;70.80
41686;BME280;27370;42.764;23.432;2022-10-16T09:54:01;96450.94;;;16.62;65.58
41686;BME280;27370;42.764;23.432;2022-10-16T09:56:29;96438.50;;;16.77;69.04
41686;BME280;27370;42.764;23.432;2022-10-16T09:58:59;96441.31;;;16.90;66.77
41686;BME280;27370;42.764;23.432;2022-10-16T10:01:31;96439.69;;;16.92;65.06
41686;BME280;27370;42.764;23.432;2022-10-16T10:04:02;96443.63;;;16.91;68.57
41686;BME280;27370;42.764;23.432;2022-10-16T10:06:31;96444.56;;;16.68;63.98
41686;BME280;27370;42.764;23.432;2022-10-16T10:09:05;96437.69;;;16.24;64.03
41686;BME280;27370;42.764;23.432;2022-10-16T10:11:41;96425.56;;;16.61;64.55
41686;BME280;27370;42.764;23.432;2022-10-16T10:14:17;96426.63;;;16.83;61.69
41686;BME280;27370;42.764;23.432;2022-10-16T10:16:43;96422.25;;;16.86;66.43
41686;BME280;27370;42.764;23.432;2022-10-16T10:19:14;96423.47;;;17.01;64.03
41686;BME280;27370;42.764;23.432;2022-10-16T10:21:40;96423.44;;;16.69;68.64
41686;BME280;27370;42.764;23.432;2022-10-16T10:24:10;96414.75;;;16.90;67.91
41686;BME280;27370;42.764;23.432;2022-10-16T10:26:36;96418.44;;;17.00;62.49
41686;BME280;27370;42.764;23.432;2022-10-16T10:34:34;96409.59;;;17.25;62.68
41686;BME280;27370;42.764;23.432;2022-10-16T10:45:42;96403.38;;;17.08;60.92
41686;BME280;27370;42.764;23.432;2022-10-16T10:48:41;96397.34;;;17.58;60.82
41686;BME280;27370;42.764;23.432;2022-10-16T10:57:36;96386.25;;;17.20;61.16
41686;BME280;27370;42.764;23.432;2022-10-16T11:05:23;96379.81;;;17.72;63.75
41686;BME280;27370;42.764;23.432;2022-10-16T11:07:58;96375.69;;;17.93;64.31
41686;BME280;27370;42.764;23.432;2022-10-16T11:10:57;96365.75;;;18.24;61.22
41686;BME280;27370;42.764;23.432;2022-10-16T11:16:22;96365.53;;;18.19;60.75
41686;BME280;27370;42.764;23.432;2022-10-16T11:18:56;96360.16;;;18.15;57.88
41686;BME280;27370;42.764;23.432;2022-10-16T11:21:24;96362.91;;;18.66;53.92
41686;BME280;27370;42.764;23.432;2022-10-16T11:24:18;96355.53;;;18.50;57.58
41686;BME280;27370;42.764;23.432;2022-10-16T11:26:47;96361.28;;;18.69;57.24
41686;BME280;27370;42.764;23.432;2022-10-16T11:29:19;96363.13;;;18.84;54.53
41686;BME280;27370;42.764;23.432;2022-10-16T11:31:59;96348.13;;;19.11;48.20
41686;BME280;27370;42.764;23.432;2022-10-16T11:34:35;96343.19;;;19.06;48.86
41686;BME280;27370;42.764;23.432;2022-10-16T11:37:11;96355.34;;;18.83;49.53
41686;BME280;27370;42.764;23.432;2022-10-16T11:39:39;96344.63;;;18.97;46.93
41686;BME280;27370;42.764;23.432;2022-10-16T11:42:20;96350.03;;;19.01;50.22
41686;BME280;27370;42.764;23.432;2022-10-16T11:47:34;96352.25;;;18.55;46.23
41686;BME280;27370;42.764;23.432;2022-10-16T11:53:13;96352.38;;;18.64;42.10
41686;BME280;27370;42.764;23.432;2022-10-16T11:55:43;96347.44;;;18.21;46.85
41686;BME280;27370;42.764;23.432;2022-10-16T11:58:31;96344.91;;;18.40;47.40
41686;BME280;27370;42.764;23.432;2022-10-16T12:03:46;96357.44;;;18.79;40.52
41686;BME280;27370;42.764;23.432;2022-10-16T12:08:47;96349.19;;;18.66;39.99
41686;BME280;27370;42.764;23.432;2022-10-16T12:11:39;96346.34;;;18.70;38.65
41686;BME280;27370;42.764;23.432;2022-10-16T12:16:56;96348.31;;;18.44;38.21
41686;BME280;27370;42.764;23.432;2022-10-16T12:19:30;96336.47;;;18.72;38.61
41686;BME280;27370;42.764;23.432;2022-10-16T12:22:34;96354.22;;;18.55;38.63
41686;BME280;27370;42.764;23.432;2022-10-16T12:25:04;96342.84;;;18.44;39.97
41686;BME280;27370;42.764;23.432;2022-10-16T12:27:31;96352.34;;;18.77;39.09
41686;BME280;27370;42.764;23.432;2022-10-16T12:29:59;96352.03;;;18.88;38.05
41686;BME280;27370;42.764;23.432;2022-10-16T12:34:57;96339.19;;;18.72;39.90
41686;BME280;27370;42.764;23.432;2022-10-16T12:37:25;96354.81;;;18.62;39.17
41686;BME280;27370;42.764;23.432;2022-10-16T12:39:57;96356.00;;;18.74;38.22
41686;BME280;27370;42.764;23.432;2022-10-16T12:44:52;96348.44;;;18.40;36.67
41686;BME280;27370;42.764;23.432;2022-10-16T12:47:46;96346.44;;;18.79;35.99
41686;BME280;27370;42.764;23.432;2022-10-16T12:50:26;96347.09;;;18.70;36.82
41686;BME280;27370;42.764;23.432;2022-10-16T12:52:51;96348.19;;;18.22;37.58
41686;BME280;27370;42.764;23.432;2022-10-16T12:55:21;96358.28;;;18.25;38.05
41686;BME280;27370;42.764;23.432;2022-10-16T13:00:56;96361.28;;;18.69;36.56
41686;BME280;27370;42.764;23.432;2022-10-16T13:06:17;96358.97;;;18.42;38.35
41686;BME280;27370;42.764;23.432;2022-10-16T13:17:19;96363.06;;;17.83;39.50
41686;BME280;27370;42.764;23.432;2022-10-16T13:22:51;96356.19;;;17.91;41.10
41686;BME280;27370;42.764;23.432;2022-10-16T13:28:07;96362.50;;;17.46;41.26
41686;BME280;27370;42.764;23.432;2022-10-16T13:30:43;96359.59;;;17.66;40.46
41686;BME280;27370;42.764;23.432;2022-10-16T13:33:20;96362.88;;;17.32;41.03
41686;BME280;27370;42.764;23.432;2022-10-16T13:35:50;96368.03;;;17.42;41.35
41686;BME280;27370;42.764;23.432;2022-10-16T13:38:19;96367.34;;;17.09;40.76
41686;BME280;27370;42.764;23.432;2022-10-16T13:40:55;96373.84;;;17.15;39.57
41686;BME280;27370;42.764;23.432;2022-10-16T13:48:39;96381.22;;;17.02;39.93
41686;BME280;27370;42.764;23.432;2022-10-16T13:51:06;96380.88;;;17.00;40.54
41686;BME280;27370;42.764;23.432;2022-10-16T13:53:34;96388.66;;;17.02;39.76
41686;BME280;27370;42.764;23.432;2022-10-16T13:56:03;96380.63;;;16.95;40.83
41686;BME280;27370;42.764;23.432;2022-10-16T13:58:30;96371.25;;;16.79;41.08
41686;BME280;27370;42.764;23.432;2022-10-16T14:01:04;96381.91;;;16.74;41.54
41686;BME280;27370;42.764;23.432;2022-10-16T14:03:33;96386.06;;;16.62;42.27
41686;BME280;27370;42.764;23.432;2022-10-16T14:06:03;96394.91;;;16.70;42.22
41686;BME280;27370;42.764;23.432;2022-10-16T14:08:31;96386.72;;;16.50;42.89
41686;BME280;27370;42.764;23.432;2022-10-16T14:10:59;96392.16;;;16.53;41.55
41686;BME280;27370;42.764;23.432;2022-10-16T14:13:37;96389.22;;;16.44;42.84
41686;BME280;27370;42.764;23.432;2022-10-16T14:16:15;96402.38;;;16.33;43.74
41686;BME280;27370;42.764;23.432;2022-10-16T14:18:52;96390.91;;;16.38;43.58
41686;BME280;27370;42.764;23.432;2022-10-16T14:21:20;96400.09;;;16.28;43.58
41686;BME280;27370;42.764;23.432;2022-10-16T14:23:46;96408.38;;;16.24;43.91
41686;BME280;27370;42.764;23.432;2022-10-16T14:26:14;96403.84;;;16.18;43.66
41686;BME280;27370;42.764;23.432;2022-10-16T14:28:41;96403.59;;;16.12;44.24
41686;BME280;27370;42.764;23.432;2022-10-16T14:33:44;96409.00;;;15.76;45.79
41686;BME280;27370;42.764;23.432;2022-10-16T14:38:37;96403.19;;;15.74;46.48
41686;BME280;27370;42.764;23.432;2022-10-16T14:41:04;96404.81;;;15.91;45.97
41686;BME280;27370;42.764;23.432;2022-10-16T14:43:41;96408.78;;;15.67;47.12
41686;BME280;27370;42.764;23.432;2022-10-16T14:46:15;96410.41;;;15.65;47.03